createdAt,value
2016-04-21T00:00:07.317Z,727.3
2016-04-21T00:00:20.552Z,727.32
2016-04-21T00:00:48.583Z,727.36
2016-04-21T00:01:01.930Z,727.26
2016-04-21T00:01:15.148Z,727.38
2016-04-21T00:01:28.164Z,727.29
2016-04-21T00:01:41.477Z,727.29
2016-04-21T00:01:54.836Z,727.4
2016-04-21T00:02:08.167Z,727.29
2016-04-21T00:02:21.323Z,727.36
2016-04-21T00:02:34.620Z,727.26
2016-04-21T00:02:47.917Z,727.31
2016-04-21T00:03:01.264Z,727.31
2016-04-21T00:03:14.561Z,727.3
2016-04-21T00:03:27.889Z,727.31
2016-04-21T00:03:41.201Z,727.26
2016-04-21T00:03:54.498Z,727.24
2016-04-21T00:04:07.813Z,727.24
2016-04-21T00:04:21.110Z,727.23
2016-04-21T00:04:34.406Z,727.32
2016-04-21T00:04:47.703Z,727.18
2016-04-21T00:05:00.988Z,727.14
2016-04-21T00:05:14.284Z,727.33
2016-04-21T00:05:30.644Z,727.35
2016-04-21T00:05:45.425Z,727.23
2016-04-21T00:05:58.708Z,727.25
2016-04-21T00:06:11.849Z,727.27
2016-04-21T00:06:25.146Z,727.17
2016-04-21T00:06:38.443Z,727.31
2016-04-21T00:06:51.771Z,727.27
2016-04-21T00:07:05.039Z,727.33
2016-04-21T00:07:18.336Z,727.2
2016-04-21T00:07:31.664Z,727.25
2016-04-21T00:07:44.977Z,727.23
2016-04-21T00:07:58.355Z,727.25
2016-04-21T00:08:11.667Z,727.18
2016-04-21T00:08:24.980Z,727.15
2016-04-21T00:08:38.292Z,727.29
2016-04-21T00:08:51.574Z,727.14
2016-04-21T00:09:04.889Z,727.26
2016-04-21T00:09:18.186Z,727.16
2016-04-21T00:09:31.499Z,727.13
2016-04-21T00:09:44.780Z,727.22
2016-04-21T00:10:12.236Z,727.2
2016-04-21T00:10:25.548Z,727.16
2016-04-21T00:10:41.908Z,727.21
2016-04-21T00:10:55.220Z,727.16
2016-04-21T00:11:08.519Z,727.17
2016-04-21T00:11:21.800Z,727.23
2016-04-21T00:11:35.113Z,727.19
2016-04-21T00:11:48.425Z,727.23
2016-04-21T00:12:01.725Z,727.18
2016-04-21T00:12:15.022Z,727.17
2016-04-21T00:12:28.303Z,727.23
2016-04-21T00:12:41.616Z,727.16
2016-04-21T00:12:54.928Z,727.16
2016-04-21T00:13:08.244Z,727.17
2016-04-21T00:13:21.556Z,727.21
2016-04-21T00:13:35.041Z,727.22
2016-04-21T00:13:48.338Z,727.22
2016-04-21T00:14:01.637Z,727.18
2016-04-21T00:14:14.949Z,727.15
2016-04-21T00:14:28.246Z,727.13
2016-04-21T00:14:41.543Z,727.24
2016-04-21T00:14:54.824Z,727.14
2016-04-21T00:15:08.171Z,727.12
2016-04-21T00:15:21.499Z,727.17
2016-04-21T00:15:34.827Z,727.17
2016-04-21T00:15:48.124Z,727.1
2016-04-21T00:16:01.438Z,727.13
2016-04-21T00:16:14.735Z,727.19
2016-04-21T00:16:28.048Z,727.22
2016-04-21T00:16:41.345Z,727.22
2016-04-21T00:16:54.657Z,727.02
2016-04-21T00:17:07.957Z,727.18
2016-04-21T00:17:21.223Z,727.18
2016-04-21T00:17:34.520Z,727.1
2016-04-21T00:17:47.816Z,727
2016-04-21T00:18:00.976Z,727.16
2016-04-21T00:18:14.273Z,727.2
2016-04-21T00:18:27.741Z,727.18
2016-04-21T00:18:41.054Z,727.21
2016-04-21T00:18:54.351Z,727.19
2016-04-21T00:19:07.666Z,727.12
2016-04-21T00:19:20.963Z,727.22
2016-04-21T00:19:34.260Z,727.22
2016-04-21T00:19:47.541Z,727.12
2016-04-21T00:20:00.716Z,727.08
2016-04-21T00:20:14.029Z,727.21
2016-04-21T00:20:27.560Z,727.19
2016-04-21T00:20:40.888Z,727.1
2016-04-21T00:20:54.185Z,727.24
2016-04-21T00:21:07.484Z,727.22
2016-04-21T00:21:20.796Z,727.11
2016-04-21T00:21:34.093Z,727.12
2016-04-21T00:21:50.390Z,727.05
2016-04-21T00:22:03.690Z,727.19
2016-04-21T00:22:16.987Z,727.15
2016-04-21T00:22:30.643Z,727.22
2016-04-21T00:22:43.955Z,727.06
2016-04-21T00:22:57.143Z,727.24
2016-04-21T00:23:10.395Z,727.14
2016-04-21T00:23:23.723Z,727.09
2016-04-21T00:23:40.004Z,727.19
2016-04-21T00:23:53.286Z,727.17
2016-04-21T00:24:06.570Z,727.15
2016-04-21T00:24:19.882Z,727.25
2016-04-21T00:25:00.619Z,727.23
2016-04-21T00:25:13.900Z,727.21
2016-04-21T00:25:27.431Z,727.06
2016-04-21T00:25:39.994Z,727.14
2016-04-21T00:26:07.450Z,727.1
2016-04-21T00:26:20.762Z,727.22
2016-04-21T00:26:34.090Z,727.05
2016-04-21T00:27:01.515Z,727.01
2016-04-21T00:27:14.843Z,727.17
2016-04-21T00:27:28.125Z,727.15
2016-04-21T00:27:41.422Z,727.16
2016-04-21T00:27:54.734Z,727.23
2016-04-21T00:28:08.050Z,727.24
2016-04-21T00:28:21.346Z,727.29
2016-04-21T00:28:34.675Z,727.1
2016-04-21T00:28:48.065Z,727.07
2016-04-21T00:29:01.349Z,727.1
2016-04-21T00:29:14.646Z,727.06
2016-04-21T00:29:27.959Z,727.15
2016-04-21T00:29:41.256Z,727.17
2016-04-21T00:29:54.537Z,726.99
2016-04-21T00:30:22.211Z,726.89
2016-04-21T00:30:35.539Z,727.03
2016-04-21T00:30:48.851Z,727.06
2016-04-21T00:31:02.183Z,727.01
2016-04-21T00:31:15.479Z,727.04
2016-04-21T00:31:28.776Z,727.02
2016-04-21T00:31:42.089Z,726.95
2016-04-21T00:31:55.401Z,726.82
2016-04-21T00:32:08.731Z,727.06
2016-04-21T00:32:22.028Z,727.04
2016-04-21T00:32:35.341Z,727.13
2016-04-21T00:32:48.481Z,727.15
2016-04-21T00:33:01.797Z,727.17
2016-04-21T00:33:15.109Z,727.05
2016-04-21T00:33:28.391Z,727.01
2016-04-21T00:33:41.688Z,727.06
2016-04-21T00:33:55.000Z,727.15
2016-04-21T00:34:08.300Z,727.15
2016-04-21T00:34:21.597Z,727.05
2016-04-21T00:34:34.894Z,727.03
2016-04-21T00:34:48.175Z,727.13
2016-04-21T00:35:01.489Z,726.97
2016-04-21T00:35:14.802Z,726.99
2016-04-21T00:35:31.255Z,726.98
2016-04-21T00:35:44.552Z,727.08
2016-04-21T00:35:57.868Z,727.12
2016-04-21T00:36:11.009Z,726.97
2016-04-21T00:36:24.290Z,727.04
2016-04-21T00:36:37.790Z,727
2016-04-21T00:36:51.087Z,727.05
2016-04-21T00:37:18.558Z,727.04
2016-04-21T00:37:31.855Z,727.07
2016-04-21T00:37:45.167Z,726.97
2016-04-21T00:37:58.185Z,726.96
2016-04-21T00:38:11.497Z,727.07
2016-04-21T00:38:24.794Z,726.99
2016-04-21T00:38:38.279Z,727.1
2016-04-21T00:38:51.576Z,726.91
2016-04-21T00:39:05.080Z,727.07
2016-04-21T00:39:18.392Z,727.15
2016-04-21T00:39:31.689Z,727.12
2016-04-21T00:39:44.986Z,727.04
2016-04-21T00:39:58.285Z,726.95
2016-04-21T00:40:11.582Z,727.01
2016-04-21T00:40:24.894Z,727.03
2016-04-21T00:40:38.628Z,727.04
2016-04-21T00:41:06.084Z,726.95
2016-04-21T00:41:19.380Z,727.04
2016-04-21T00:41:32.693Z,726.98
2016-04-21T00:42:00.180Z,727.09
2016-04-21T00:42:13.462Z,727
2016-04-21T00:42:26.743Z,726.99
2016-04-21T00:42:40.024Z,726.99
2016-04-21T00:42:53.321Z,727.02
2016-04-21T00:43:06.636Z,726.97
2016-04-21T00:43:19.933Z,727.06
2016-04-21T00:43:33.465Z,727.06
2016-04-21T00:43:46.761Z,727.01
2016-04-21T00:44:00.061Z,726.87
2016-04-21T00:44:13.374Z,727.06
2016-04-21T00:44:26.671Z,726.96
2016-04-21T00:44:39.968Z,727.01
2016-04-21T00:44:53.249Z,726.97
2016-04-21T00:45:06.533Z,727.02
2016-04-21T00:45:19.846Z,727.02
2016-04-21T00:45:33.236Z,726.94
2016-04-21T00:45:46.736Z,727.02
2016-04-21T00:46:00.082Z,726.9
2016-04-21T00:46:13.348Z,726.86
2016-04-21T00:46:26.676Z,726.98
2016-04-21T00:46:39.988Z,726.98
2016-04-21T00:46:53.285Z,726.96
2016-04-21T00:47:05.851Z,727.01
2016-04-21T00:47:19.163Z,726.97
2016-04-21T00:47:32.679Z,726.95
2016-04-21T00:47:46.007Z,726.94
2016-04-21T00:47:59.306Z,726.85
2016-04-21T00:48:26.774Z,726.92
2016-04-21T00:48:40.071Z,726.95
2016-04-21T00:48:53.368Z,726.92
2016-04-21T00:49:06.715Z,726.93
2016-04-21T00:49:20.012Z,726.88
2016-04-21T00:49:33.324Z,726.95
2016-04-21T00:49:46.590Z,726.92
2016-04-21T00:49:59.890Z,726.95
2016-04-21T00:50:13.202Z,726.96
2016-04-21T00:50:26.765Z,726.93
2016-04-21T00:50:40.109Z,726.95
2016-04-21T00:50:53.390Z,726.93
2016-04-21T00:51:06.720Z,726.91
2016-04-21T00:51:20.017Z,726.92
2016-04-21T00:51:33.329Z,726.91
2016-04-21T00:51:46.642Z,726.94
2016-04-21T00:51:59.958Z,726.87
2016-04-21T00:52:13.474Z,726.9
2016-04-21T00:52:26.771Z,726.9
2016-04-21T00:52:54.240Z,726.86
2016-04-21T00:53:07.398Z,726.95
2016-04-21T00:53:20.710Z,726.92
2016-04-21T00:53:34.007Z,726.86
2016-04-21T00:53:47.507Z,726.88
2016-04-21T00:54:00.823Z,726.89
2016-04-21T00:54:14.120Z,726.88
2016-04-21T00:54:27.448Z,726.92
2016-04-21T00:54:40.729Z,726.88
2016-04-21T00:54:54.229Z,726.92
2016-04-21T00:55:07.529Z,726.87
2016-04-21T00:55:20.810Z,727
2016-04-21T00:55:34.154Z,726.92
2016-04-21T00:55:47.451Z,726.84
2016-04-21T00:56:00.750Z,726.88
2016-04-21T00:56:14.062Z,726.94
2016-04-21T00:56:27.343Z,726.91
2016-04-21T00:56:40.625Z,726.89
2016-04-21T00:56:53.921Z,726.88
2016-04-21T00:57:07.253Z,726.85
2016-04-21T00:57:20.565Z,726.82
2016-04-21T00:57:33.893Z,726.88
2016-04-21T00:58:01.348Z,726.82
2016-04-21T00:58:14.848Z,726.86
2016-04-21T00:58:28.145Z,726.77
2016-04-21T00:58:41.442Z,726.83
2016-04-21T00:58:54.755Z,726.81
2016-04-21T00:59:08.054Z,726.88
2016-04-21T00:59:21.351Z,726.78
2016-04-21T00:59:34.648Z,726.85
2016-04-21T00:59:47.945Z,726.82
2016-04-21T01:00:01.089Z,726.84
2016-04-21T01:00:14.401Z,726.85
2016-04-21T01:00:30.729Z,726.81
2016-04-21T01:00:44.026Z,726.81
2016-04-21T01:00:57.323Z,726.78
2016-04-21T01:01:10.639Z,726.84
2016-04-21T01:01:24.123Z,726.8
2016-04-21T01:01:37.435Z,726.81
2016-04-21T01:01:50.717Z,726.81
2016-04-21T01:02:04.016Z,726.81
2016-04-21T01:02:17.328Z,726.79
2016-04-21T01:02:30.625Z,726.78
2016-04-21T01:02:43.969Z,726.76
2016-04-21T01:02:57.250Z,726.78
2016-04-21T01:03:10.550Z,726.83
2016-04-21T01:03:23.894Z,726.76
2016-04-21T01:03:37.190Z,726.76
2016-04-21T01:03:50.487Z,726.77
2016-04-21T01:04:03.818Z,726.77
2016-04-21T01:04:17.099Z,726.76
2016-04-21T01:04:30.396Z,726.75
2016-04-21T01:04:43.708Z,726.77
2016-04-21T01:04:57.224Z,726.76
2016-04-21T01:05:10.569Z,726.78
2016-04-21T01:05:23.913Z,726.83
2016-04-21T01:05:37.350Z,726.8
2016-04-21T01:05:50.631Z,726.85
2016-04-21T01:06:03.852Z,726.79
2016-04-21T01:06:17.149Z,726.72
2016-04-21T01:06:30.446Z,726.72
2016-04-21T01:06:57.915Z,726.74
2016-04-21T01:07:11.243Z,726.78
2016-04-21T01:07:24.556Z,726.78
2016-04-21T01:07:37.868Z,726.79
2016-04-21T01:07:51.165Z,726.73
2016-04-21T01:08:04.541Z,726.74
2016-04-21T01:08:17.666Z,726.72
2016-04-21T01:08:30.947Z,726.72
2016-04-21T01:08:44.244Z,726.73
2016-04-21T01:08:57.541Z,726.79
2016-04-21T01:09:10.892Z,726.72
2016-04-21T01:09:24.188Z,726.82
2016-04-21T01:09:51.673Z,726.69
2016-04-21T01:10:19.130Z,726.71
2016-04-21T01:10:33.412Z,726.76
2016-04-21T01:10:46.724Z,726.78
2016-04-21T01:11:00.024Z,726.75
2016-04-21T01:11:13.337Z,726.83
2016-04-21T01:11:26.634Z,726.76
2016-04-21T01:11:39.931Z,726.73
2016-04-21T01:11:53.243Z,726.74
2016-04-21T01:12:06.559Z,726.79
2016-04-21T01:12:19.871Z,726.77
2016-04-21T01:12:33.168Z,726.44
2016-04-21T01:12:46.465Z,726.66
2016-04-21T01:12:59.781Z,726.77
2016-04-21T01:13:13.094Z,726.76
2016-04-21T01:13:26.390Z,726.76
2016-04-21T01:13:39.687Z,726.77
2016-04-21T01:14:07.171Z,726.68
2016-04-21T01:14:20.468Z,726.81
2016-04-21T01:14:33.796Z,726.72
2016-04-21T01:14:47.077Z,726.76
2016-04-21T01:15:00.399Z,726.69
2016-04-21T01:15:13.539Z,726.67
2016-04-21T01:15:41.039Z,726.71
2016-04-21T01:15:54.336Z,726.81
2016-04-21T01:16:07.657Z,726.72
2016-04-21T01:16:20.969Z,726.73
2016-04-21T01:16:34.282Z,726.75
2016-04-21T01:16:47.626Z,726.71
2016-04-21T01:17:00.947Z,726.71
2016-04-21T01:17:14.260Z,726.7
2016-04-21T01:17:27.572Z,726.7
2016-04-21T01:17:40.869Z,726.73
2016-04-21T01:17:54.150Z,726.81
2016-04-21T01:18:07.455Z,726.68
2016-04-21T01:18:35.096Z,726.72
2016-04-21T01:18:48.393Z,726.82
2016-04-21T01:19:01.729Z,726.71
2016-04-21T01:19:15.010Z,726.6
2016-04-21T01:20:09.952Z,726.76
2016-04-21T01:20:23.234Z,726.74
2016-04-21T01:20:36.562Z,726.7
2016-04-21T01:20:49.859Z,726.75
2016-04-21T01:21:03.175Z,726.74
2016-04-21T01:21:16.675Z,726.68
2016-04-21T01:21:29.988Z,726.72
2016-04-21T01:21:43.285Z,726.69
2016-04-21T01:21:56.335Z,726.72
2016-04-21T01:22:09.341Z,726.6
2016-04-21T01:22:22.638Z,726.71
2016-04-21T01:22:35.951Z,726.7
2016-04-21T01:22:49.263Z,726.74
2016-04-21T01:23:02.642Z,726.62
2016-04-21T01:23:15.783Z,726.67
2016-04-21T01:23:29.095Z,726.73
2016-04-21T01:23:42.377Z,726.73
2016-04-21T01:23:55.689Z,726.74
2016-04-21T01:24:09.022Z,726.63
2016-04-21T01:24:22.319Z,726.78
2016-04-21T01:24:35.616Z,726.7
2016-04-21T01:24:48.897Z,726.75
2016-04-21T01:25:02.214Z,726.66
2016-04-21T01:25:15.511Z,726.7
2016-04-21T01:25:29.057Z,726.65
2016-04-21T01:25:42.354Z,726.63
2016-04-21T01:25:55.651Z,726.64
2016-04-21T01:26:08.935Z,726.71
2016-04-21T01:26:22.232Z,726.76
2016-04-21T01:26:35.529Z,726.62
2016-04-21T01:26:48.826Z,726.67
2016-04-21T01:27:02.127Z,726.65
2016-04-21T01:27:15.408Z,726.61
2016-04-21T01:27:28.705Z,726.57
2016-04-21T01:27:42.033Z,726.66
2016-04-21T01:27:55.314Z,726.61
2016-04-21T01:28:08.630Z,726.6
2016-04-21T01:28:21.927Z,726.68
2016-04-21T01:28:35.208Z,726.7
2016-04-21T01:28:48.505Z,726.66
2016-04-21T01:29:01.805Z,726.64
2016-04-21T01:29:15.102Z,726.69
2016-04-21T01:29:28.414Z,726.64
2016-04-21T01:29:41.680Z,726.67
2016-04-21T01:29:54.961Z,726.65
2016-04-21T01:30:08.292Z,726.68
2016-04-21T01:30:21.620Z,726.68
2016-04-21T01:30:34.948Z,726.72
2016-04-21T01:30:48.230Z,726.67
2016-04-21T01:31:01.545Z,726.67
2016-04-21T01:31:14.842Z,726.67
2016-04-21T01:31:28.155Z,726.71
2016-04-21T01:31:41.467Z,726.65
2016-04-21T01:31:54.764Z,726.67
2016-04-21T01:32:08.064Z,726.64
2016-04-21T01:32:21.345Z,726.55
2016-04-21T01:32:34.642Z,726.62
2016-04-21T01:32:47.954Z,726.64
2016-04-21T01:33:01.270Z,726.67
2016-04-21T01:33:14.567Z,726.72
2016-04-21T01:33:28.051Z,726.72
2016-04-21T01:33:41.332Z,726.59
2016-04-21T01:33:54.645Z,726.65
2016-04-21T01:34:07.976Z,726.66
2016-04-21T01:34:21.289Z,726.72
2016-04-21T01:34:34.585Z,726.65
2016-04-21T01:34:47.851Z,726.71
2016-04-21T01:35:01.182Z,726.89
2016-04-21T01:35:14.479Z,726.71
2016-04-21T01:35:27.807Z,726.75
2016-04-21T01:35:41.120Z,726.64
2016-04-21T01:35:54.401Z,726.76
2016-04-21T01:36:07.685Z,726.74
2016-04-21T01:36:21.013Z,726.78
2016-04-21T01:36:48.466Z,726.79
2016-04-21T01:37:01.750Z,726.81
2016-04-21T01:37:14.359Z,726.79
2016-04-21T01:37:27.656Z,726.83
2016-04-21T01:37:40.953Z,726.73
2016-04-21T01:37:54.281Z,726.81
2016-04-21T01:38:07.441Z,726.62
2016-04-21T01:38:20.488Z,726.72
2016-04-21T01:38:33.785Z,726.79
2016-04-21T01:38:47.082Z,726.69
2016-04-21T01:39:00.396Z,726.69
2016-04-21T01:39:13.693Z,726.45
2016-04-21T01:39:27.037Z,726.7
2016-04-21T01:39:40.349Z,726.66
2016-04-21T01:39:53.631Z,726.83
2016-04-21T01:40:07.118Z,726.55
2016-04-21T01:40:20.415Z,726.78
2016-04-21T01:40:34.884Z,726.64
2016-04-21T01:40:48.165Z,726.71
2016-04-21T01:41:01.667Z,726.72
2016-04-21T01:41:14.948Z,726.67
2016-04-21T01:41:28.245Z,726.51
2016-04-21T01:41:41.542Z,726.76
2016-04-21T01:41:54.854Z,726.66
2016-04-21T01:42:08.170Z,726.65
2016-04-21T01:42:21.467Z,726.75
2016-04-21T01:42:34.764Z,726.65
2016-04-21T01:42:48.092Z,726.81
2016-04-21T01:43:01.391Z,726.71
2016-04-21T01:43:14.719Z,726.72
2016-04-21T01:43:28.031Z,726.69
2016-04-21T01:43:41.328Z,726.48
2016-04-21T01:43:54.656Z,726.6
2016-04-21T01:44:07.816Z,726.7
2016-04-21T01:44:21.128Z,726.81
2016-04-21T01:44:34.441Z,726.77
2016-04-21T01:44:47.737Z,726.74
2016-04-21T01:45:01.053Z,726.7
2016-04-21T01:45:14.365Z,726.53
2016-04-21T01:45:27.694Z,726.78
2016-04-21T01:45:41.006Z,726.74
2016-04-21T01:45:54.303Z,726.77
2016-04-21T01:46:07.618Z,726.71
2016-04-21T01:46:20.900Z,726.61
2016-04-21T01:46:34.197Z,726.76
2016-04-21T01:46:47.509Z,726.63
2016-04-21T01:47:00.825Z,726.57
2016-04-21T01:47:14.137Z,726.55
2016-04-21T01:47:27.418Z,726.63
2016-04-21T01:47:54.871Z,726.59
2016-04-21T01:48:08.186Z,726.67
2016-04-21T01:48:21.483Z,726.69
2016-04-21T01:48:34.623Z,726.61
2016-04-21T01:48:47.936Z,726.66
2016-04-21T01:49:01.236Z,726.67
2016-04-21T01:49:14.564Z,726.79
2016-04-21T01:49:27.892Z,726.54
2016-04-21T01:49:41.189Z,726.63
2016-04-21T01:49:54.470Z,726.73
2016-04-21T01:50:07.785Z,726.76
2016-04-21T01:50:21.082Z,726.34
2016-04-21T01:50:35.082Z,726.44
2016-04-21T01:51:02.553Z,726.54
2016-04-21T01:51:15.835Z,726.8
2016-04-21T01:51:29.147Z,726.7
2016-04-21T01:51:42.475Z,726.67
2016-04-21T01:51:55.772Z,726.69
2016-04-21T01:52:09.072Z,726.6
2016-04-21T01:52:22.369Z,726.68
2016-04-21T01:52:35.666Z,726.63
2016-04-21T01:52:48.994Z,726.5
2016-04-21T01:53:02.294Z,726.62
2016-04-21T01:53:15.669Z,726.61
2016-04-21T01:53:28.950Z,726.56
2016-04-21T01:53:42.231Z,726.49
2016-04-21T01:53:55.512Z,726.82
2016-04-21T01:54:08.812Z,726.63
2016-04-21T01:54:22.140Z,726.68
2016-04-21T01:54:35.672Z,726.69
2016-04-21T01:54:48.984Z,726.63
2016-04-21T01:55:02.502Z,726.75
2016-04-21T01:55:15.783Z,726.67
2016-04-21T01:55:32.158Z,726.65
2016-04-21T01:55:59.611Z,726.69
2016-04-21T01:56:12.911Z,726.61
2016-04-21T01:56:26.536Z,726.52
2016-04-21T01:56:39.817Z,726.68
2016-04-21T01:56:53.130Z,726.68
2016-04-21T01:57:06.444Z,726.65
2016-04-21T01:57:19.741Z,726.83
2016-04-21T01:57:33.257Z,726.62
2016-04-21T01:57:46.554Z,726.64
2016-04-21T01:57:59.866Z,726.61
2016-04-21T01:58:13.182Z,726.59
2016-04-21T01:58:26.494Z,726.61
2016-04-21T01:58:39.791Z,726.68
2016-04-21T01:58:53.088Z,726.67
2016-04-21T01:59:06.402Z,726.59
2016-04-21T01:59:19.918Z,726.62
2016-04-21T01:59:33.246Z,726.42
2016-04-21T01:59:46.559Z,726.65
2016-04-21T01:59:59.856Z,726.54
2016-04-21T02:00:13.155Z,726.47
2016-04-21T02:00:26.687Z,726.65
2016-04-21T02:00:39.984Z,726.42
2016-04-21T02:00:53.296Z,726.62
2016-04-21T02:01:06.580Z,726.7
2016-04-21T02:01:19.908Z,726.67
2016-04-21T02:01:33.237Z,726.52
2016-04-21T02:01:46.549Z,726.62
2016-04-21T02:01:59.862Z,726.57
2016-04-21T02:02:13.193Z,726.59
2016-04-21T02:02:26.505Z,726.59
2016-04-21T02:02:40.005Z,726.57
2016-04-21T02:02:53.286Z,726.51
2016-04-21T02:03:06.821Z,726.69
2016-04-21T02:03:20.149Z,726.64
2016-04-21T02:03:33.461Z,726.7
2016-04-21T02:03:46.774Z,726.67
2016-04-21T02:04:00.102Z,726.66
2016-04-21T02:04:13.401Z,726.71
2016-04-21T02:04:26.713Z,726.6
2016-04-21T02:04:40.026Z,726.66
2016-04-21T02:04:53.354Z,726.65
2016-04-21T02:05:06.951Z,726.58
2016-04-21T02:05:20.341Z,726.6
2016-04-21T02:05:34.451Z,726.53
2016-04-21T02:05:47.873Z,726.67
2016-04-21T02:06:15.406Z,726.61
2016-04-21T02:06:28.796Z,726.71
2016-04-21T02:06:42.156Z,726.66
2016-04-21T02:06:55.531Z,726.68
2016-04-21T02:07:09.144Z,726.7
2016-04-21T02:07:22.550Z,726.57
2016-04-21T02:07:35.910Z,726.65
2016-04-21T02:07:49.332Z,726.73
2016-04-21T02:08:02.709Z,726.67
2016-04-21T02:08:15.974Z,726.67
2016-04-21T02:08:29.365Z,726.55
2016-04-21T02:08:42.771Z,726.69
2016-04-21T02:08:56.162Z,726.66
2016-04-21T02:09:09.540Z,726.62
2016-04-21T02:09:22.915Z,726.61
2016-04-21T02:09:36.305Z,726.67
2016-04-21T02:09:49.696Z,726.57
2016-04-21T02:10:03.073Z,726.52
2016-04-21T02:10:16.464Z,726.61
2016-04-21T02:10:30.042Z,726.6
2016-04-21T02:10:43.417Z,726.58
2016-04-21T02:10:56.761Z,726.61
2016-04-21T02:11:10.123Z,726.65
2016-04-21T02:11:23.467Z,726.61
2016-04-21T02:11:36.842Z,726.56
2016-04-21T02:11:50.185Z,726.62
2016-04-21T02:12:03.531Z,726.53
2016-04-21T02:12:16.906Z,726.69
2016-04-21T02:12:30.297Z,726.38
2016-04-21T02:12:43.656Z,726.62
2016-04-21T02:12:56.984Z,726.49
2016-04-21T02:13:10.348Z,726.58
2016-04-21T02:13:23.723Z,726.61
2016-04-21T02:13:37.082Z,726.57
2016-04-21T02:13:50.426Z,726.65
2016-04-21T02:14:03.741Z,726.63
2016-04-21T02:14:17.069Z,726.64
2016-04-21T02:14:30.429Z,726.67
2016-04-21T02:14:43.788Z,726.67
2016-04-21T02:14:57.148Z,726.65
2016-04-21T02:15:10.478Z,726.59
2016-04-21T02:15:27.040Z,726.46
2016-04-21T02:15:40.368Z,726.53
2016-04-21T02:15:53.540Z,726.64
2016-04-21T02:16:06.886Z,726.63
2016-04-21T02:16:20.198Z,726.64
2016-04-21T02:16:33.527Z,726.57
2016-04-21T02:16:46.855Z,726.59
2016-04-21T02:17:00.198Z,726.58
2016-04-21T02:17:13.545Z,726.49
2016-04-21T02:17:40.983Z,726.56
2016-04-21T02:17:54.295Z,726.55
2016-04-21T02:18:07.610Z,726.61
2016-04-21T02:18:35.313Z,726.55
2016-04-21T02:18:48.641Z,726.46
2016-04-21T02:19:02.141Z,726.64
2016-04-21T02:19:15.644Z,726.52
2016-04-21T02:19:28.988Z,726.43
2016-04-21T02:19:42.316Z,726.48
2016-04-21T02:19:55.628Z,726.53
2016-04-21T02:20:08.945Z,726.6
2016-04-21T02:20:22.460Z,726.54
2016-04-21T02:21:04.117Z,726.62
2016-04-21T02:21:17.431Z,726.43
2016-04-21T02:21:44.759Z,726.52
2016-04-21T02:21:58.072Z,726.47
2016-04-21T02:22:11.386Z,726.51
2016-04-21T02:22:24.714Z,726.58
2016-04-21T02:22:38.027Z,726.56
2016-04-21T02:22:51.339Z,726.46
2016-04-21T02:23:04.655Z,726.5
2016-04-21T02:23:17.842Z,726.44
2016-04-21T02:23:31.233Z,726.45
2016-04-21T02:23:44.577Z,726.52
2016-04-21T02:24:12.034Z,726.5
2016-04-21T02:24:25.362Z,726.53
2016-04-21T02:24:38.675Z,726.47
2016-04-21T02:24:52.034Z,726.54
2016-04-21T02:25:05.364Z,726.52
2016-04-21T02:25:18.708Z,726.51
2016-04-21T02:25:35.067Z,726.32
2016-04-21T02:25:48.380Z,726.56
2016-04-21T02:26:01.708Z,726.4
2016-04-21T02:26:15.023Z,726.46
2016-04-21T02:26:28.336Z,726.45
2016-04-21T02:26:41.664Z,726.51
2016-04-21T02:26:55.180Z,726.56
2016-04-21T02:27:08.478Z,726.32
2016-04-21T02:27:21.807Z,726.47
2016-04-21T02:27:35.135Z,726.54
2016-04-21T02:27:48.478Z,726.52
2016-04-21T02:28:01.791Z,726.52
2016-04-21T02:28:15.091Z,726.49
2016-04-21T02:28:28.419Z,726.51
2016-04-21T02:28:41.716Z,726.39
2016-04-21T02:28:55.028Z,726.48
2016-04-21T02:29:08.375Z,726.43
2016-04-21T02:29:21.688Z,726.5
2016-04-21T02:29:35.047Z,726.46
2016-04-21T02:29:48.359Z,726.43
2016-04-21T02:30:01.688Z,726.49
2016-04-21T02:30:15.033Z,726.49
2016-04-21T02:30:42.549Z,726.39
2016-04-21T02:30:55.893Z,726.5
2016-04-21T02:31:09.036Z,726.42
2016-04-21T02:31:22.380Z,726.4
2016-04-21T02:31:35.677Z,726.46
2016-04-21T02:31:49.021Z,726.37
2016-04-21T02:32:02.349Z,726.44
2016-04-21T02:32:15.679Z,726.39
2016-04-21T02:32:28.835Z,726.38
2016-04-21T02:32:42.163Z,726.54
2016-04-21T02:32:55.476Z,726.41
2016-04-21T02:33:08.807Z,726.42
2016-04-21T02:33:22.135Z,726.51
2016-04-21T02:33:35.463Z,726.46
2016-04-21T02:33:48.776Z,726.38
2016-04-21T02:34:02.088Z,726.46
2016-04-21T02:34:15.435Z,726.42
2016-04-21T02:34:28.935Z,726.49
2016-04-21T02:34:42.482Z,726.48
2016-04-21T02:34:55.810Z,726.43
2016-04-21T02:35:09.140Z,726.53
2016-04-21T02:35:22.484Z,726.29
2016-04-21T02:35:36.234Z,726.47
2016-04-21T02:35:49.562Z,726.42
2016-04-21T02:36:02.859Z,726.36
2016-04-21T02:36:16.191Z,726.44
2016-04-21T02:36:29.503Z,726.48
2016-04-21T02:36:43.019Z,726.37
2016-04-21T02:36:56.378Z,726.44
2016-04-21T02:37:09.568Z,726.43
2016-04-21T02:37:22.865Z,726.49
2016-04-21T02:37:36.209Z,726.5
2016-04-21T02:37:49.521Z,726.46
2016-04-21T02:38:02.865Z,726.42
2016-04-21T02:38:16.087Z,726.3
2016-04-21T02:38:29.415Z,726.33
2016-04-21T02:38:45.743Z,726.54
2016-04-21T02:38:59.071Z,726.52
2016-04-21T02:39:12.386Z,726.43
2016-04-21T02:39:25.730Z,726.42
2016-04-21T02:39:38.871Z,726.52
2016-04-21T02:39:52.183Z,726.55
2016-04-21T02:40:05.498Z,726.53
2016-04-21T02:40:18.842Z,726.55
2016-04-21T02:40:32.545Z,726.53
2016-04-21T02:40:45.857Z,726.5
2016-04-21T02:40:59.185Z,726.56
2016-04-21T02:41:12.501Z,726.43
2016-04-21T02:41:25.860Z,726.59
2016-04-21T02:41:39.188Z,726.48
2016-04-21T02:41:52.501Z,726.49
2016-04-21T02:42:05.831Z,726.4
2016-04-21T02:42:19.128Z,726.6
2016-04-21T02:42:32.643Z,726.53
2016-04-21T02:42:45.972Z,726.57
2016-04-21T02:42:59.315Z,726.56
2016-04-21T02:43:12.662Z,726.46
2016-04-21T02:43:25.975Z,726.43
2016-04-21T02:43:53.428Z,726.62
2016-04-21T02:44:06.790Z,726.58
2016-04-21T02:44:20.087Z,726.52
2016-04-21T02:44:33.462Z,726.51
2016-04-21T02:44:46.790Z,726.5
2016-04-21T02:45:00.118Z,726.53
2016-04-21T02:45:13.417Z,726.49
2016-04-21T02:45:26.839Z,726.49
2016-04-21T02:45:40.714Z,726.58
2016-04-21T02:45:54.042Z,726.52
2016-04-21T02:46:07.390Z,726.44
2016-04-21T02:46:20.718Z,726.49
2016-04-21T02:46:34.030Z,726.54
2016-04-21T02:46:47.359Z,726.42
2016-04-21T02:47:00.702Z,726.55
2016-04-21T02:47:14.032Z,726.55
2016-04-21T02:47:27.345Z,726.55
2016-04-21T02:47:40.689Z,726.47
2016-04-21T02:47:54.032Z,726.34
2016-04-21T02:48:07.348Z,726.53
2016-04-21T02:48:20.692Z,726.52
2016-04-21T02:48:34.035Z,726.54
2016-04-21T02:48:47.364Z,726.53
2016-04-21T02:49:00.676Z,726.52
2016-04-21T02:49:13.991Z,726.53
2016-04-21T02:49:27.522Z,726.51
2016-04-21T02:49:40.850Z,726.46
2016-04-21T02:49:54.194Z,726.55
2016-04-21T02:50:07.525Z,726.49
2016-04-21T02:50:20.853Z,726.49
2016-04-21T02:50:48.322Z,726.51
2016-04-21T02:51:01.665Z,726.41
2016-04-21T02:51:14.981Z,726.56
2016-04-21T02:51:28.325Z,726.59
2016-04-21T02:51:41.637Z,726.59
2016-04-21T02:51:54.950Z,726.52
2016-04-21T02:52:08.280Z,726.42
2016-04-21T02:52:49.092Z,726.36
2016-04-21T02:53:02.452Z,726.41
2016-04-21T02:53:16.033Z,726.48
2016-04-21T02:53:29.392Z,726.39
2016-04-21T02:53:42.752Z,726.54
2016-04-21T02:53:56.064Z,726.47
2016-04-21T02:54:09.395Z,726.5
2016-04-21T02:54:22.692Z,726.48
2016-04-21T02:54:36.223Z,726.49
2016-04-21T02:54:49.755Z,726.5
2016-04-21T02:55:03.083Z,726.42
2016-04-21T02:55:16.428Z,726.48
2016-04-21T02:55:29.960Z,726.48
2016-04-21T02:55:57.428Z,726.37
2016-04-21T02:56:10.760Z,726.45
2016-04-21T02:56:24.088Z,726.5